sensor_id;sensor_type;location;lat;lon;timestamp;P1;durP1;ratioP1;P2;durP2;ratioP2
64682;SDS011;51107;47.652;19.016;2022-12-18T00:00:23;9.07;;;4.07;;
64682;SDS011;51107;47.652;19.016;2022-12-18T00:02:53;4.57;;;2.83;;
64682;SDS011;51107;47.652;19.016;2022-12-18T00:05:21;4.50;;;2.95;;
64682;SDS011;51107;47.652;19.016;2022-12-18T00:07:49;7.95;;;3.50;;
64682;SDS011;51107;47.652;19.016;2022-12-18T00:10:18;3.80;;;3.03;;
64682;SDS011;51107;47.652;19.016;2022-12-18T00:12:47;3.15;;;2.47;;
64682;SDS011;51107;47.652;19.016;2022-12-18T00:15:15;2.67;;;2.37;;
64682;SDS011;51107;47.652;19.016;2022-12-18T00:17:43;6.62;;;2.22;;
64682;SDS011;51107;47.652;19.016;2022-12-18T00:20:11;4.50;;;2.72;;
64682;SDS011;51107;47.652;19.016;2022-12-18T00:22:39;1.90;;;1.62;;
64682;SDS011;51107;47.652;19.016;2022-12-18T00:25:08;5.97;;;2.85;;
64682;SDS011;51107;47.652;19.016;2022-12-18T00:27:37;5.07;;;3.12;;
64682;SDS011;51107;47.652;19.016;2022-12-18T00:30:05;3.67;;;2.50;;
64682;SDS011;51107;47.652;19.016;2022-12-18T00:32:34;9.73;;;2.83;;
64682;SDS011;51107;47.652;19.016;2022-12-18T00:35:03;6.32;;;3.55;;
64682;SDS011;51107;47.652;19.016;2022-12-18T00:37:35;3.00;;;2.40;;
64682;SDS011;51107;47.652;19.016;2022-12-18T00:40:04;7.05;;;2.53;;
64682;SDS011;51107;47.652;19.016;2022-12-18T00:42:36;2.40;;;1.70;;
64682;SDS011;51107;47.652;19.016;2022-12-18T00:45:28;3.65;;;3.17;;
64682;SDS011;51107;47.652;19.016;2022-12-18T00:47:57;3.87;;;3.28;;
64682;SDS011;51107;47.652;19.016;2022-12-18T00:50:26;3.45;;;2.40;;
64682;SDS011;51107;47.652;19.016;2022-12-18T00:52:54;3.05;;;2.47;;
64682;SDS011;51107;47.652;19.016;2022-12-18T00:55:23;3.08;;;2.08;;
64682;SDS011;51107;47.652;19.016;2022-12-18T00:57:51;3.70;;;3.00;;
64682;SDS011;51107;47.652;19.016;2022-12-18T01:00:20;12.15;;;6.70;;
64682;SDS011;51107;47.652;19.016;2022-12-18T01:02:48;5.90;;;3.12;;
64682;SDS011;51107;47.652;19.016;2022-12-18T01:05:17;5.32;;;3.25;;
64682;SDS011;51107;47.652;19.016;2022-12-18T01:07:46;2.40;;;1.65;;
64682;SDS011;51107;47.652;19.016;2022-12-18T01:10:14;10.70;;;3.42;;
64682;SDS011;51107;47.652;19.016;2022-12-18T01:12:43;2.65;;;2.45;;
64682;SDS011;51107;47.652;19.016;2022-12-18T01:15:11;7.93;;;4.25;;
64682;SDS011;51107;47.652;19.016;2022-12-18T01:17:40;7.15;;;2.87;;
64682;SDS011;51107;47.652;19.016;2022-12-18T01:20:10;8.30;;;3.40;;
64682;SDS011;51107;47.652;19.016;2022-12-18T01:22:40;6.47;;;3.15;;
64682;SDS011;51107;47.652;19.016;2022-12-18T01:25:08;1.87;;;1.65;;
64682;SDS011;51107;47.652;19.016;2022-12-18T01:27:37;11.63;;;2.55;;
64682;SDS011;51107;47.652;19.016;2022-12-18T01:30:06;2.40;;;1.55;;
64682;SDS011;51107;47.652;19.016;2022-12-18T01:32:34;4.10;;;2.30;;
64682;SDS011;51107;47.652;19.016;2022-12-18T01:35:03;3.42;;;2.75;;
64682;SDS011;51107;47.652;19.016;2022-12-18T01:37:31;6.53;;;3.47;;
64682;SDS011;51107;47.652;19.016;2022-12-18T01:39:59;3.58;;;2.75;;
64682;SDS011;51107;47.652;19.016;2022-12-18T01:42:28;3.22;;;1.75;;
64682;SDS011;51107;47.652;19.016;2022-12-18T01:45:05;3.60;;;2.55;;
64682;SDS011;51107;47.652;19.016;2022-12-18T01:47:36;8.40;;;4.20;;
64682;SDS011;51107;47.652;19.016;2022-12-18T01:52:47;6.28;;;3.87;;
64682;SDS011;51107;47.652;19.016;2022-12-18T01:55:22;10.40;;;3.75;;
64682;SDS011;51107;47.652;19.016;2022-12-18T01:57:53;9.65;;;5.68;;
64682;SDS011;51107;47.652;19.016;2022-12-18T02:00:24;5.30;;;3.70;;
64682;SDS011;51107;47.652;19.016;2022-12-18T02:02:54;6.03;;;3.30;;
64682;SDS011;51107;47.652;19.016;2022-12-18T02:11:37;3.20;;;2.75;;
64682;SDS011;51107;47.652;19.016;2022-12-18T02:17:14;2.97;;;2.67;;
64682;SDS011;51107;47.652;19.016;2022-12-18T02:22:37;2.75;;;2.22;;
64682;SDS011;51107;47.652;19.016;2022-12-18T02:27:49;4.05;;;3.20;;
64682;SDS011;51107;47.652;19.016;2022-12-18T02:30:20;5.07;;;2.97;;
64682;SDS011;51107;47.652;19.016;2022-12-18T02:32:50;3.40;;;2.78;;
64682;SDS011;51107;47.652;19.016;2022-12-18T02:35:22;3.12;;;2.83;;
64682;SDS011;51107;47.652;19.016;2022-12-18T02:37:53;5.90;;;3.03;;
64682;SDS011;51107;47.652;19.016;2022-12-18T02:40:21;3.28;;;2.30;;
64682;SDS011;51107;47.652;19.016;2022-12-18T02:42:52;9.85;;;3.45;;
64682;SDS011;51107;47.652;19.016;2022-12-18T02:45:20;7.43;;;3.60;;
64682;SDS011;51107;47.652;19.016;2022-12-18T02:47:49;5.12;;;2.10;;
64682;SDS011;51107;47.652;19.016;2022-12-18T02:59:13;9.95;;;3.65;;
64682;SDS011;51107;47.652;19.016;2022-12-18T03:02:07;2.33;;;1.95;;
64682;SDS011;51107;47.652;19.016;2022-12-18T03:05:13;2.92;;;2.22;;
64682;SDS011;51107;47.652;19.016;2022-12-18T03:07:53;4.90;;;3.00;;
64682;SDS011;51107;47.652;19.016;2022-12-18T03:10:29;4.37;;;2.95;;
64682;SDS011;51107;47.652;19.016;2022-12-18T03:13:05;14.23;;;5.93;;
64682;SDS011;51107;47.652;19.016;2022-12-18T03:15:44;6.30;;;3.72;;
64682;SDS011;51107;47.652;19.016;2022-12-18T03:20:52;4.35;;;3.20;;
64682;SDS011;51107;47.652;19.016;2022-12-18T03:23:24;8.38;;;3.60;;
64682;SDS011;51107;47.652;19.016;2022-12-18T03:25:59;3.10;;;2.85;;
64682;SDS011;51107;47.652;19.016;2022-12-18T03:28:36;3.47;;;2.78;;
64682;SDS011;51107;47.652;19.016;2022-12-18T03:31:10;3.92;;;3.50;;
64682;SDS011;51107;47.652;19.016;2022-12-18T03:33:54;4.28;;;2.58;;
64682;SDS011;51107;47.652;19.016;2022-12-18T03:36:26;2.17;;;1.83;;
64682;SDS011;51107;47.652;19.016;2022-12-18T03:38:57;15.18;;;4.60;;
64682;SDS011;51107;47.652;19.016;2022-12-18T03:47:16;3.28;;;1.92;;
64682;SDS011;51107;47.652;19.016;2022-12-18T03:49:57;2.72;;;2.03;;
64682;SDS011;51107;47.652;19.016;2022-12-18T03:52:48;3.65;;;3.30;;
64682;SDS011;51107;47.652;19.016;2022-12-18T03:55:24;7.23;;;1.73;;
64682;SDS011;51107;47.652;19.016;2022-12-18T03:57:57;9.45;;;4.65;;
64682;SDS011;51107;47.652;19.016;2022-12-18T04:00:30;5.95;;;3.72;;
64682;SDS011;51107;47.652;19.016;2022-12-18T04:03:01;3.25;;;2.40;;
64682;SDS011;51107;47.652;19.016;2022-12-18T04:05:32;3.97;;;2.58;;
64682;SDS011;51107;47.652;19.016;2022-12-18T04:08:03;2.47;;;2.15;;
64682;SDS011;51107;47.652;19.016;2022-12-18T04:10:36;4.12;;;2.05;;
64682;SDS011;51107;47.652;19.016;2022-12-18T04:13:05;4.28;;;2.62;;
64682;SDS011;51107;47.652;19.016;2022-12-18T04:15:35;6.40;;;2.87;;
64682;SDS011;51107;47.652;19.016;2022-12-18T04:18:05;4.47;;;2.83;;
64682;SDS011;51107;47.652;19.016;2022-12-18T04:20:35;11.98;;;4.45;;
64682;SDS011;51107;47.652;19.016;2022-12-18T04:23:04;9.30;;;6.37;;
64682;SDS011;51107;47.652;19.016;2022-12-18T04:25:33;24.20;;;10.70;;
64682;SDS011;51107;47.652;19.016;2022-12-18T04:28:04;7.10;;;5.93;;
64682;SDS011;51107;47.652;19.016;2022-12-18T04:30:33;5.87;;;3.30;;
64682;SDS011;51107;47.652;19.016;2022-12-18T04:33:01;6.70;;;3.28;;
64682;SDS011;51107;47.652;19.016;2022-12-18T04:35:30;3.80;;;2.60;;
64682;SDS011;51107;47.652;19.016;2022-12-18T04:37:59;6.87;;;4.93;;
64682;SDS011;51107;47.652;19.016;2022-12-18T04:40:27;7.82;;;3.03;;
64682;SDS011;51107;47.652;19.016;2022-12-18T04:42:56;4.30;;;3.85;;
64682;SDS011;51107;47.652;19.016;2022-12-18T04:45:25;2.62;;;2.42;;
64682;SDS011;51107;47.652;19.016;2022-12-18T04:47:53;7.43;;;3.28;;
64682;SDS011;51107;47.652;19.016;2022-12-18T04:50:21;2.67;;;2.00;;
64682;SDS011;51107;47.652;19.016;2022-12-18T04:52:50;7.95;;;5.00;;
64682;SDS011;51107;47.652;19.016;2022-12-18T04:55:18;2.35;;;2.00;;
64682;SDS011;51107;47.652;19.016;2022-12-18T04:57:47;3.45;;;2.12;;
64682;SDS011;51107;47.652;19.016;2022-12-18T05:00:15;1.95;;;1.08;;
64682;SDS011;51107;47.652;19.016;2022-12-18T05:02:43;2.47;;;2.28;;
64682;SDS011;51107;47.652;19.016;2022-12-18T05:05:13;5.70;;;3.05;;
64682;SDS011;51107;47.652;19.016;2022-12-18T05:07:41;2.87;;;2.20;;
64682;SDS011;51107;47.652;19.016;2022-12-18T05:10:09;4.10;;;1.85;;
64682;SDS011;51107;47.652;19.016;2022-12-18T05:12:38;6.70;;;2.72;;
64682;SDS011;51107;47.652;19.016;2022-12-18T05:15:30;2.12;;;1.92;;
64682;SDS011;51107;47.652;19.016;2022-12-18T05:18:00;2.12;;;1.92;;
64682;SDS011;51107;47.652;19.016;2022-12-18T05:20:29;6.78;;;2.50;;
64682;SDS011;51107;47.652;19.016;2022-12-18T05:22:57;4.53;;;2.55;;
64682;SDS011;51107;47.652;19.016;2022-12-18T05:25:26;2.87;;;1.65;;
64682;SDS011;51107;47.652;19.016;2022-12-18T05:27:55;6.62;;;4.22;;
64682;SDS011;51107;47.652;19.016;2022-12-18T05:30:24;3.20;;;2.53;;
64682;SDS011;51107;47.652;19.016;2022-12-18T05:32:53;5.90;;;4.72;;
64682;SDS011;51107;47.652;19.016;2022-12-18T05:35:22;10.40;;;4.93;;
64682;SDS011;51107;47.652;19.016;2022-12-18T05:37:50;12.20;;;6.78;;
64682;SDS011;51107;47.652;19.016;2022-12-18T05:40:18;11.63;;;3.67;;
64682;SDS011;51107;47.652;19.016;2022-12-18T05:42:46;10.40;;;5.95;;
64682;SDS011;51107;47.652;19.016;2022-12-18T05:45:14;7.57;;;4.90;;
64682;SDS011;51107;47.652;19.016;2022-12-18T05:47:43;8.80;;;4.95;;
64682;SDS011;51107;47.652;19.016;2022-12-18T05:50:11;6.57;;;4.07;;
64682;SDS011;51107;47.652;19.016;2022-12-18T05:52:39;6.82;;;3.75;;
64682;SDS011;51107;47.652;19.016;2022-12-18T05:55:07;2.75;;;2.37;;
64682;SDS011;51107;47.652;19.016;2022-12-18T05:57:36;7.80;;;3.67;;
64682;SDS011;51107;47.652;19.016;2022-12-18T06:00:04;11.00;;;5.18;;
64682;SDS011;51107;47.652;19.016;2022-12-18T06:02:38;7.12;;;5.40;;
64682;SDS011;51107;47.652;19.016;2022-12-18T06:05:07;11.10;;;4.03;;
64682;SDS011;51107;47.652;19.016;2022-12-18T06:07:35;3.83;;;3.40;;
64682;SDS011;51107;47.652;19.016;2022-12-18T06:10:04;4.65;;;3.95;;
64682;SDS011;51107;47.652;19.016;2022-12-18T06:12:33;6.82;;;3.85;;
64682;SDS011;51107;47.652;19.016;2022-12-18T06:15:01;4.10;;;3.05;;
64682;SDS011;51107;47.652;19.016;2022-12-18T06:17:30;3.75;;;2.92;;
64682;SDS011;51107;47.652;19.016;2022-12-18T06:20:00;5.80;;;3.60;;
64682;SDS011;51107;47.652;19.016;2022-12-18T06:22:30;3.60;;;2.62;;
64682;SDS011;51107;47.652;19.016;2022-12-18T06:24:59;20.48;;;4.35;;
64682;SDS011;51107;47.652;19.016;2022-12-18T06:27:28;8.43;;;4.25;;
64682;SDS011;51107;47.652;19.016;2022-12-18T06:29:56;6.78;;;3.70;;
64682;SDS011;51107;47.652;19.016;2022-12-18T06:32:25;2.92;;;2.65;;
64682;SDS011;51107;47.652;19.016;2022-12-18T06:34:53;4.20;;;3.10;;
64682;SDS011;51107;47.652;19.016;2022-12-18T06:37:23;4.87;;;3.25;;
64682;SDS011;51107;47.652;19.016;2022-12-18T06:39:54;5.37;;;4.20;;
64682;SDS011;51107;47.652;19.016;2022-12-18T06:42:22;18.45;;;5.65;;
64682;SDS011;51107;47.652;19.016;2022-12-18T06:44:51;8.90;;;4.97;;
64682;SDS011;51107;47.652;19.016;2022-12-18T06:47:20;15.80;;;4.87;;
64682;SDS011;51107;47.652;19.016;2022-12-18T06:49:48;9.38;;;6.95;;
64682;SDS011;51107;47.652;19.016;2022-12-18T06:52:16;7.75;;;5.35;;
64682;SDS011;51107;47.652;19.016;2022-12-18T06:54:45;7.05;;;5.15;;
64682;SDS011;51107;47.652;19.016;2022-12-18T06:57:13;4.72;;;3.50;;
64682;SDS011;51107;47.652;19.016;2022-12-18T06:59:41;5.00;;;3.10;;
64682;SDS011;51107;47.652;19.016;2022-12-18T07:02:11;4.15;;;3.75;;
64682;SDS011;51107;47.652;19.016;2022-12-18T07:04:40;4.72;;;3.37;;
64682;SDS011;51107;47.652;19.016;2022-12-18T07:07:08;4.40;;;3.90;;
64682;SDS011;51107;47.652;19.016;2022-12-18T07:09:37;3.35;;;2.90;;
64682;SDS011;51107;47.652;19.016;2022-12-18T07:12:05;7.35;;;4.37;;
64682;SDS011;51107;47.652;19.016;2022-12-18T07:14:34;15.88;;;7.12;;
64682;SDS011;51107;47.652;19.016;2022-12-18T07:17:02;5.80;;;3.90;;
64682;SDS011;51107;47.652;19.016;2022-12-18T07:19:32;3.90;;;3.55;;
64682;SDS011;51107;47.652;19.016;2022-12-18T07:22:01;6.22;;;2.85;;
64682;SDS011;51107;47.652;19.016;2022-12-18T07:24:29;3.60;;;2.85;;
64682;SDS011;51107;47.652;19.016;2022-12-18T07:26:58;2.12;;;1.92;;
64682;SDS011;51107;47.652;19.016;2022-12-18T07:29:26;7.45;;;3.85;;
64682;SDS011;51107;47.652;19.016;2022-12-18T07:31:54;6.40;;;3.17;;
64682;SDS011;51107;47.652;19.016;2022-12-18T07:34:23;3.22;;;2.67;;
64682;SDS011;51107;47.652;19.016;2022-12-18T07:36:51;3.80;;;3.10;;
64682;SDS011;51107;47.652;19.016;2022-12-18T07:39:19;2.95;;;2.67;;
64682;SDS011;51107;47.652;19.016;2022-12-18T07:41:48;4.32;;;3.22;;
64682;SDS011;51107;47.652;19.016;2022-12-18T07:44:39;3.42;;;3.00;;
64682;SDS011;51107;47.652;19.016;2022-12-18T07:47:07;9.43;;;4.75;;
64682;SDS011;51107;47.652;19.016;2022-12-18T07:49:39;3.62;;;2.37;;
64682;SDS011;51107;47.652;19.016;2022-12-18T07:52:07;5.22;;;3.33;;
64682;SDS011;51107;47.652;19.016;2022-12-18T07:54:37;25.50;;;14.43;;
64682;SDS011;51107;47.652;19.016;2022-12-18T07:57:05;11.70;;;4.70;;
64682;SDS011;51107;47.652;19.016;2022-12-18T07:59:54;12.00;;;4.90;;
64682;SDS011;51107;47.652;19.016;2022-12-18T08:02:22;7.05;;;5.62;;
64682;SDS011;51107;47.652;19.016;2022-12-18T08:04:51;7.25;;;4.87;;
64682;SDS011;51107;47.652;19.016;2022-12-18T08:07:19;15.27;;;7.93;;
64682;SDS011;51107;47.652;19.016;2022-12-18T08:09:47;30.42;;;7.60;;
64682;SDS011;51107;47.652;19.016;2022-12-18T08:12:16;9.50;;;6.15;;
64682;SDS011;51107;47.652;19.016;2022-12-18T08:14:44;12.68;;;6.40;;
64682;SDS011;51107;47.652;19.016;2022-12-18T08:17:12;14.40;;;5.65;;
64682;SDS011;51107;47.652;19.016;2022-12-18T08:19:40;13.73;;;7.12;;
64682;SDS011;51107;47.652;19.016;2022-12-18T08:22:09;5.62;;;4.10;;
64682;SDS011;51107;47.652;19.016;2022-12-18T08:24:37;10.20;;;6.47;;
64682;SDS011;51107;47.652;19.016;2022-12-18T08:27:05;10.50;;;5.40;;
64682;SDS011;51107;47.652;19.016;2022-12-18T08:29:55;15.43;;;4.43;;
64682;SDS011;51107;47.652;19.016;2022-12-18T08:32:25;13.07;;;4.93;;
64682;SDS011;51107;47.652;19.016;2022-12-18T08:34:54;9.75;;;4.20;;
64682;SDS011;51107;47.652;19.016;2022-12-18T08:37:22;11.02;;;6.28;;
64682;SDS011;51107;47.652;19.016;2022-12-18T08:39:51;6.95;;;3.80;;
64682;SDS011;51107;47.652;19.016;2022-12-18T08:42:19;6.32;;;4.78;;
64682;SDS011;51107;47.652;19.016;2022-12-18T08:45:06;8.30;;;4.87;;
64682;SDS011;51107;47.652;19.016;2022-12-18T08:47:35;9.05;;;4.57;;
64682;SDS011;51107;47.652;19.016;2022-12-18T08:50:03;10.65;;;4.12;;
64682;SDS011;51107;47.652;19.016;2022-12-18T08:52:32;12.20;;;4.18;;
64682;SDS011;51107;47.652;19.016;2022-12-18T08:55:00;9.55;;;5.80;;
64682;SDS011;51107;47.652;19.016;2022-12-18T08:57:28;7.30;;;4.78;;
64682;SDS011;51107;47.652;19.016;2022-12-18T08:59:57;7.37;;;5.05;;
64682;SDS011;51107;47.652;19.016;2022-12-18T09:02:25;8.00;;;4.32;;
64682;SDS011;51107;47.652;19.016;2022-12-18T09:04:53;9.30;;;4.85;;
64682;SDS011;51107;47.652;19.016;2022-12-18T09:07:24;14.65;;;6.75;;
64682;SDS011;51107;47.652;19.016;2022-12-18T09:09:53;14.52;;;6.25;;
64682;SDS011;51107;47.652;19.016;2022-12-18T09:12:21;12.35;;;4.43;;
64682;SDS011;51107;47.652;19.016;2022-12-18T09:14:49;12.48;;;6.53;;
64682;SDS011;51107;47.652;19.016;2022-12-18T09:17:17;13.05;;;6.80;;
64682;SDS011;51107;47.652;19.016;2022-12-18T09:19:46;11.20;;;4.95;;
64682;SDS011;51107;47.652;19.016;2022-12-18T09:22:15;10.27;;;5.20;;
64682;SDS011;51107;47.652;19.016;2022-12-18T09:24:43;12.90;;;6.43;;
64682;SDS011;51107;47.652;19.016;2022-12-18T09:27:11;11.05;;;6.28;;
64682;SDS011;51107;47.652;19.016;2022-12-18T09:29:40;16.40;;;6.00;;
64682;SDS011;51107;47.652;19.016;2022-12-18T09:32:08;9.63;;;5.28;;
64682;SDS011;51107;47.652;19.016;2022-12-18T09:34:36;17.08;;;6.95;;
64682;SDS011;51107;47.652;19.016;2022-12-18T09:37:05;14.70;;;7.45;;
64682;SDS011;51107;47.652;19.016;2022-12-18T09:39:33;11.48;;;6.40;;
64682;SDS011;51107;47.652;19.016;2022-12-18T09:42:01;17.45;;;8.35;;
64682;SDS011;51107;47.652;19.016;2022-12-18T09:44:34;14.85;;;6.82;;
64682;SDS011;51107;47.652;19.016;2022-12-18T09:47:19;14.50;;;7.70;;
64682;SDS011;51107;47.652;19.016;2022-12-18T09:50:58;17.90;;;6.53;;
64682;SDS011;51107;47.652;19.016;2022-12-18T09:53:10;14.30;;;7.65;;
64682;SDS011;51107;47.652;19.016;2022-12-18T09:55:45;16.98;;;7.78;;
64682;SDS011;51107;47.652;19.016;2022-12-18T09:58:28;17.08;;;8.15;;
64682;SDS011;51107;47.652;19.016;2022-12-18T10:01:01;10.93;;;7.07;;
64682;SDS011;51107;47.652;19.016;2022-12-18T10:03:29;12.10;;;7.90;;
64682;SDS011;51107;47.652;19.016;2022-12-18T10:11:15;12.02;;;7.22;;
64682;SDS011;51107;47.652;19.016;2022-12-18T10:27:48;16.17;;;6.60;;
64682;SDS011;51107;47.652;19.016;2022-12-18T10:30:22;15.77;;;7.70;;
64682;SDS011;51107;47.652;19.016;2022-12-18T10:32:51;11.65;;;6.37;;
64682;SDS011;51107;47.652;19.016;2022-12-18T10:35:21;22.48;;;8.85;;
64682;SDS011;51107;47.652;19.016;2022-12-18T10:38:28;16.65;;;8.27;;
64682;SDS011;51107;47.652;19.016;2022-12-18T10:40:50;18.27;;;7.50;;
64682;SDS011;51107;47.652;19.016;2022-12-18T10:48:40;16.05;;;7.28;;
64682;SDS011;51107;47.652;19.016;2022-12-18T10:51:28;18.62;;;8.70;;
64682;SDS011;51107;47.652;19.016;2022-12-18T10:54:05;14.10;;;7.53;;
64682;SDS011;51107;47.652;19.016;2022-12-18T10:56:42;19.30;;;8.88;;
64682;SDS011;51107;47.652;19.016;2022-12-18T10:59:12;17.25;;;8.48;;
64682;SDS011;51107;47.652;19.016;2022-12-18T11:04:19;17.33;;;8.75;;
64682;SDS011;51107;47.652;19.016;2022-12-18T11:07:01;22.27;;;7.72;;
64682;SDS011;51107;47.652;19.016;2022-12-18T11:09:34;12.18;;;7.12;;
64682;SDS011;51107;47.652;19.016;2022-12-18T11:12:04;16.80;;;7.55;;
64682;SDS011;51107;47.652;19.016;2022-12-18T11:14:42;13.93;;;6.57;;
64682;SDS011;51107;47.652;19.016;2022-12-18T11:17:30;13.60;;;7.10;;
64682;SDS011;51107;47.652;19.016;2022-12-18T11:20:05;17.05;;;7.15;;
64682;SDS011;51107;47.652;19.016;2022-12-18T11:22:55;10.10;;;5.43;;
64682;SDS011;51107;47.652;19.016;2022-12-18T11:25:29;15.98;;;7.35;;
64682;SDS011;51107;47.652;19.016;2022-12-18T11:28:06;11.93;;;7.20;;
64682;SDS011;51107;47.652;19.016;2022-12-18T11:33:54;13.60;;;6.85;;
64682;SDS011;51107;47.652;19.016;2022-12-18T11:36:47;10.55;;;5.82;;
64682;SDS011;51107;47.652;19.016;2022-12-18T11:42:09;15.38;;;6.37;;
64682;SDS011;51107;47.652;19.016;2022-12-18T11:44:47;18.12;;;7.20;;
64682;SDS011;51107;47.652;19.016;2022-12-18T11:50:24;29.98;;;6.50;;
64682;SDS011;51107;47.652;19.016;2022-12-18T11:52:57;12.27;;;5.80;;
64682;SDS011;51107;47.652;19.016;2022-12-18T12:03:47;15.25;;;5.37;;
64682;SDS011;51107;47.652;19.016;2022-12-18T12:18:05;15.20;;;6.03;;
64682;SDS011;51107;47.652;19.016;2022-12-18T12:28:52;11.12;;;4.37;;
64682;SDS011;51107;47.652;19.016;2022-12-18T12:40:13;11.68;;;5.35;;
64682;SDS011;51107;47.652;19.016;2022-12-18T12:43:22;13.80;;;4.80;;
64682;SDS011;51107;47.652;19.016;2022-12-18T12:46:04;12.93;;;5.10;;
64682;SDS011;51107;47.652;19.016;2022-12-18T12:48:55;10.15;;;4.22;;
64682;SDS011;51107;47.652;19.016;2022-12-18T12:51:27;7.57;;;4.80;;
64682;SDS011;51107;47.652;19.016;2022-12-18T12:53:58;8.85;;;3.62;;
64682;SDS011;51107;47.652;19.016;2022-12-18T12:56:46;10.73;;;4.65;;
64682;SDS011;51107;47.652;19.016;2022-12-18T12:59:37;9.18;;;4.53;;
64682;SDS011;51107;47.652;19.016;2022-12-18T13:05:08;6.70;;;3.03;;
64682;SDS011;51107;47.652;19.016;2022-12-18T13:08:07;9.90;;;4.60;;
64682;SDS011;51107;47.652;19.016;2022-12-18T13:10:39;5.30;;;3.28;;
64682;SDS011;51107;47.652;19.016;2022-12-18T13:13:11;7.75;;;3.80;;
64682;SDS011;51107;47.652;19.016;2022-12-18T13:16:06;5.32;;;3.53;;
64682;SDS011;51107;47.652;19.016;2022-12-18T13:18:35;8.27;;;3.42;;
64682;SDS011;51107;47.652;19.016;2022-12-18T13:21:18;8.15;;;4.15;;
64682;SDS011;51107;47.652;19.016;2022-12-18T13:23:52;8.40;;;3.83;;
64682;SDS011;51107;47.652;19.016;2022-12-18T13:26:28;10.30;;;4.45;;
64682;SDS011;51107;47.652;19.016;2022-12-18T13:28:59;5.82;;;3.70;;
64682;SDS011;51107;47.652;19.016;2022-12-18T13:34:21;7.25;;;4.60;;
64682;SDS011;51107;47.652;19.016;2022-12-18T13:36:55;13.00;;;4.82;;
64682;SDS011;51107;47.652;19.016;2022-12-18T13:39:44;10.77;;;3.45;;
64682;SDS011;51107;47.652;19.016;2022-12-18T13:45:05;5.70;;;3.15;;
64682;SDS011;51107;47.652;19.016;2022-12-18T13:48:17;11.48;;;5.55;;
64682;SDS011;51107;47.652;19.016;2022-12-18T13:50:49;10.68;;;4.45;;
64682;SDS011;51107;47.652;19.016;2022-12-18T13:53:28;8.40;;;4.78;;
64682;SDS011;51107;47.652;19.016;2022-12-18T13:56:01;17.30;;;6.15;;
64682;SDS011;51107;47.652;19.016;2022-12-18T13:58:31;12.23;;;6.18;;
64682;SDS011;51107;47.652;19.016;2022-12-18T14:00:59;16.15;;;7.22;;
64682;SDS011;51107;47.652;19.016;2022-12-18T14:03:30;21.65;;;8.13;;
64682;SDS011;51107;47.652;19.016;2022-12-18T14:05:59;10.82;;;5.65;;
64682;SDS011;51107;47.652;19.016;2022-12-18T14:08:33;11.70;;;6.10;;
64682;SDS011;51107;47.652;19.016;2022-12-18T14:11:05;15.57;;;6.03;;
64682;SDS011;51107;47.652;19.016;2022-12-18T14:13:37;13.80;;;5.53;;
64682;SDS011;51107;47.652;19.016;2022-12-18T14:16:11;16.12;;;6.65;;
64682;SDS011;51107;47.652;19.016;2022-12-18T14:18:51;15.15;;;7.60;;
64682;SDS011;51107;47.652;19.016;2022-12-18T14:21:36;25.15;;;8.23;;
64682;SDS011;51107;47.652;19.016;2022-12-18T14:24:19;12.68;;;5.12;;
64682;SDS011;51107;47.652;19.016;2022-12-18T14:26:49;28.83;;;8.48;;
64682;SDS011;51107;47.652;19.016;2022-12-18T14:32:03;30.33;;;9.88;;
64682;SDS011;51107;47.652;19.016;2022-12-18T14:34:32;22.62;;;9.95;;
64682;SDS011;51107;47.652;19.016;2022-12-18T14:37:00;17.77;;;7.25;;
64682;SDS011;51107;47.652;19.016;2022-12-18T14:39:28;13.15;;;6.78;;
64682;SDS011;51107;47.652;19.016;2022-12-18T14:41:57;13.50;;;6.95;;
64682;SDS011;51107;47.652;19.016;2022-12-18T14:44:25;15.00;;;7.75;;
64682;SDS011;51107;47.652;19.016;2022-12-18T14:47:12;23.05;;;7.43;;
64682;SDS011;51107;47.652;19.016;2022-12-18T14:49:43;14.77;;;6.12;;
64682;SDS011;51107;47.652;19.016;2022-12-18T14:52:29;24.65;;;8.27;;
64682;SDS011;51107;47.652;19.016;2022-12-18T14:54:59;11.05;;;5.97;;
64682;SDS011;51107;47.652;19.016;2022-12-18T14:57:30;12.30;;;7.87;;
64682;SDS011;51107;47.652;19.016;2022-12-18T15:00:04;11.07;;;6.05;;
64682;SDS011;51107;47.652;19.016;2022-12-18T15:02:35;11.23;;;5.70;;
64682;SDS011;51107;47.652;19.016;2022-12-18T15:05:05;16.27;;;5.37;;
64682;SDS011;51107;47.652;19.016;2022-12-18T15:07:47;11.05;;;5.53;;
64682;SDS011;51107;47.652;19.016;2022-12-18T15:10:19;12.90;;;5.30;;
64682;SDS011;51107;47.652;19.016;2022-12-18T15:20:55;27.05;;;12.75;;
64682;SDS011;51107;47.652;19.016;2022-12-18T15:23:28;17.30;;;9.38;;
64682;SDS011;51107;47.652;19.016;2022-12-18T15:25:58;14.68;;;6.95;;
64682;SDS011;51107;47.652;19.016;2022-12-18T15:28:33;13.80;;;8.05;;
64682;SDS011;51107;47.652;19.016;2022-12-18T15:34:00;22.20;;;8.43;;
64682;SDS011;51107;47.652;19.016;2022-12-18T15:36:33;22.52;;;11.52;;
64682;SDS011;51107;47.652;19.016;2022-12-18T15:39:04;17.37;;;10.65;;
64682;SDS011;51107;47.652;19.016;2022-12-18T15:41:34;17.77;;;11.32;;
64682;SDS011;51107;47.652;19.016;2022-12-18T15:44:19;18.17;;;8.07;;
64682;SDS011;51107;47.652;19.016;2022-12-18T15:46:51;12.90;;;7.32;;
64682;SDS011;51107;47.652;19.016;2022-12-18T15:49:20;56.08;;;21.05;;
64682;SDS011;51107;47.652;19.016;2022-12-18T15:51:57;24.37;;;15.00;;
64682;SDS011;51107;47.652;19.016;2022-12-18T15:54:30;21.50;;;10.73;;
64682;SDS011;51107;47.652;19.016;2022-12-18T15:57:17;30.75;;;15.10;;
64682;SDS011;51107;47.652;19.016;2022-12-18T15:59:53;32.90;;;14.82;;
64682;SDS011;51107;47.652;19.016;2022-12-18T16:02:24;21.83;;;11.60;;
64682;SDS011;51107;47.652;19.016;2022-12-18T16:04:53;15.35;;;9.52;;
64682;SDS011;51107;47.652;19.016;2022-12-18T16:07:22;17.65;;;8.73;;
64682;SDS011;51107;47.652;19.016;2022-12-18T16:09:54;17.17;;;10.18;;
64682;SDS011;51107;47.652;19.016;2022-12-18T16:12:24;14.48;;;7.97;;
64682;SDS011;51107;47.652;19.016;2022-12-18T16:14:53;23.80;;;9.88;;
64682;SDS011;51107;47.652;19.016;2022-12-18T16:17:22;20.73;;;11.65;;
64682;SDS011;51107;47.652;19.016;2022-12-18T16:19:50;24.45;;;13.15;;
64682;SDS011;51107;47.652;19.016;2022-12-18T16:22:20;15.85;;;8.43;;
64682;SDS011;51107;47.652;19.016;2022-12-18T16:24:54;21.10;;;10.00;;
64682;SDS011;51107;47.652;19.016;2022-12-18T16:27:24;14.85;;;7.00;;
64682;SDS011;51107;47.652;19.016;2022-12-18T16:29:53;12.63;;;7.55;;
64682;SDS011;51107;47.652;19.016;2022-12-18T16:32:22;13.07;;;6.28;;
64682;SDS011;51107;47.652;19.016;2022-12-18T16:34:51;15.32;;;8.18;;
64682;SDS011;51107;47.652;19.016;2022-12-18T16:37:20;9.23;;;6.35;;
64682;SDS011;51107;47.652;19.016;2022-12-18T16:39:48;13.98;;;5.55;;
64682;SDS011;51107;47.652;19.016;2022-12-18T16:42:17;11.15;;;5.47;;
64682;SDS011;51107;47.652;19.016;2022-12-18T16:44:48;11.68;;;5.05;;
64682;SDS011;51107;47.652;19.016;2022-12-18T16:47:17;9.88;;;4.75;;
64682;SDS011;51107;47.652;19.016;2022-12-18T16:49:47;16.52;;;7.95;;
64682;SDS011;51107;47.652;19.016;2022-12-18T16:52:20;20.95;;;10.25;;
64682;SDS011;51107;47.652;19.016;2022-12-18T16:54:49;37.40;;;17.73;;
64682;SDS011;51107;47.652;19.016;2022-12-18T16:57:18;29.80;;;16.83;;
64682;SDS011;51107;47.652;19.016;2022-12-18T16:59:52;43.60;;;19.70;;
64682;SDS011;51107;47.652;19.016;2022-12-18T17:02:21;33.08;;;19.17;;
64682;SDS011;51107;47.652;19.016;2022-12-18T17:04:56;18.60;;;12.35;;
64682;SDS011;51107;47.652;19.016;2022-12-18T17:07:25;34.50;;;14.52;;